createdAt,value
2023-05-04T00:04:54.723Z,11.81
2023-05-04T00:10:13.379Z,11.56
2023-05-04T00:15:31.666Z,11.5
2023-05-04T00:20:50.391Z,11.38
2023-05-04T00:26:08.649Z,11.44
2023-05-04T00:31:26.772Z,11.25
2023-05-04T00:36:44.841Z,10.94
2023-05-04T00:42:03.060Z,10.75
2023-05-04T00:47:21.333Z,10.63
2023-05-04T00:52:41.030Z,11
2023-05-04T00:57:59.223Z,10.63
2023-05-04T01:03:17.940Z,10.56
2023-05-04T01:08:36.609Z,10.38
2023-05-04T01:13:55.203Z,10.56
2023-05-04T01:19:13.332Z,10.13
2023-05-04T01:24:32.120Z,10
2023-05-04T01:29:50.325Z,9.81
2023-05-04T01:35:08.748Z,9.81
2023-05-04T01:40:26.871Z,9.69
2023-05-04T01:45:45.280Z,9.81
2023-05-04T01:51:03.958Z,9.81
2023-05-04T01:56:22.614Z,9.56
2023-05-04T02:01:41.208Z,9.5
2023-05-04T02:06:59.499Z,9.69
2023-05-04T02:12:18.089Z,9.81
2023-05-04T02:17:36.392Z,9.44
2023-05-04T02:22:54.890Z,9.31
2023-05-04T02:28:13.118Z,9.19
2023-05-04T02:33:31.384Z,9
2023-05-04T02:38:50.024Z,8.88
2023-05-04T02:44:08.759Z,9.06
2023-05-04T02:49:27.462Z,8.75
2023-05-04T02:54:46.117Z,8.69
2023-05-04T03:00:04.500Z,8.63
2023-05-04T03:05:22.679Z,8.63
2023-05-04T03:10:40.873Z,8.5
2023-05-04T03:15:59.636Z,8.38
2023-05-04T03:21:17.896Z,8.25
2023-05-04T03:26:36.015Z,8.19
2023-05-04T03:31:54.681Z,8.06
2023-05-04T03:37:13.136Z,8.13
2023-05-04T03:42:31.445Z,8
2023-05-04T03:47:50.137Z,7.87
2023-05-04T03:53:08.420Z,7.75
2023-05-04T03:58:26.826Z,7.75
2023-05-04T04:03:45.178Z,7.69
2023-05-04T04:09:06.338Z,7.75
2023-05-04T04:14:24.704Z,7.81
2023-05-04T04:19:43.461Z,8
2023-05-04T04:25:01.780Z,8
2023-05-04T04:30:20.186Z,8.13
2023-05-04T04:35:38.698Z,8.31
2023-05-04T04:40:57.356Z,8.44
2023-05-04T04:46:18.538Z,8.81
2023-05-04T04:51:37.343Z,8.94
2023-05-04T04:56:56.095Z,9.13
2023-05-04T05:02:14.548Z,9.38
2023-05-04T05:07:33.027Z,9.69
2023-05-04T05:12:51.626Z,10.13
2023-05-04T05:18:10.258Z,10.25
2023-05-04T05:23:28.753Z,10.19
2023-05-04T05:28:47.116Z,10.13
2023-05-04T05:34:05.774Z,10.13
2023-05-04T05:39:24.634Z,10.19
2023-05-04T05:44:42.894Z,10.31
2023-05-04T05:50:01.155Z,10.44
2023-05-04T05:55:19.667Z,10.63
2023-05-04T06:00:38.310Z,10.94
2023-05-04T06:05:56.681Z,11.19
2023-05-04T06:11:17.951Z,11.44
2023-05-04T06:16:36.926Z,11.69
2023-05-04T06:21:55.593Z,12.13
2023-05-04T06:27:14.370Z,12.37
2023-05-04T06:32:35.738Z,12.81
2023-05-04T06:43:09.967Z,13.19
2023-05-04T06:48:28.363Z,13.38
2023-05-04T06:53:46.764Z,13.62
2023-05-04T06:59:05.126Z,13.81
2023-05-04T07:04:23.631Z,14.06
2023-05-04T07:09:42.622Z,14.25
2023-05-04T07:15:01.498Z,14.5
2023-05-04T07:20:22.927Z,14.94
2023-05-04T07:25:42.321Z,14.94
2023-05-04T07:31:01.260Z,15.25
2023-05-04T07:36:20.135Z,15.94
2023-05-04T07:41:39.304Z,16.12
2023-05-04T07:46:58.368Z,16.37
2023-05-04T07:52:16.935Z,16.94
2023-05-04T07:57:35.452Z,17.62
2023-05-04T08:02:53.053Z,18.44
2023-05-04T08:08:10.015Z,19.94
2023-05-04T08:13:28.440Z,23.62
2023-05-04T08:18:46.874Z,23.69
2023-05-04T08:24:05.054Z,24.94
2023-05-04T08:29:24.450Z,24.75
2023-05-04T08:34:43.222Z,22.37
2023-05-04T08:40:01.662Z,23.06
2023-05-04T08:45:20.164Z,22
2023-05-04T08:50:38.570Z,22.56
2023-05-04T08:55:56.517Z,22.06
2023-05-04T09:01:15.279Z,21.87
2023-05-04T09:06:33.569Z,21.75
2023-05-04T09:11:52.406Z,22.19
2023-05-04T09:17:10.822Z,22.13
2023-05-04T09:22:30.015Z,23.31
2023-05-04T09:27:50.234Z,24.25
2023-05-04T09:33:09.332Z,24.87
2023-05-04T09:38:27.780Z,24.12
2023-05-04T09:43:46.086Z,24.44
2023-05-04T09:49:04.522Z,23.75
2023-05-04T09:54:22.658Z,24.37
2023-05-04T09:59:40.940Z,23.31
2023-05-04T10:04:59.645Z,24.19
2023-05-04T10:10:17.802Z,24.63
2023-05-04T10:15:35.993Z,25
2023-05-04T10:20:54.041Z,25.12
2023-05-04T10:26:12.322Z,25.5
2023-05-04T10:31:30.483Z,24.12
2023-05-04T10:36:48.822Z,25.81
2023-05-04T10:42:07.637Z,26.06
2023-05-04T10:47:26.234Z,26.56
2023-05-04T10:52:44.337Z,25.62
2023-05-04T10:58:02.196Z,25
2023-05-04T11:03:20.217Z,25.44
2023-05-04T11:08:38.805Z,25.56
2023-05-04T11:13:57.696Z,25.56
2023-05-04T11:19:16.398Z,25.19
2023-05-04T11:24:35.382Z,26.62
2023-05-04T11:29:54.681Z,25.25
2023-05-04T11:35:13.666Z,26
2023-05-04T11:40:32.186Z,26
2023-05-04T11:45:50.472Z,26.19
2023-05-04T11:51:09.719Z,26.5
2023-05-04T11:56:27.795Z,25.69
2023-05-04T12:01:46.413Z,26.19
2023-05-04T12:07:04.825Z,26
2023-05-04T12:12:23.657Z,26.31
2023-05-04T12:17:42.270Z,26.12
2023-05-04T12:23:00.680Z,26.69
2023-05-04T12:28:19.804Z,28
2023-05-04T12:33:39.243Z,26.81
2023-05-04T12:38:58.163Z,26.81
2023-05-04T12:44:16.597Z,27
2023-05-04T12:49:39.463Z,26.75
2023-05-04T12:54:57.925Z,27.44
2023-05-04T13:00:16.190Z,27.13
2023-05-04T13:05:34.827Z,28.06
2023-05-04T13:10:52.822Z,28.44
2023-05-04T13:16:11.139Z,27.31
2023-05-04T13:21:29.069Z,27.06
2023-05-04T13:26:46.973Z,26.81
2023-05-04T13:32:05.383Z,27.69
2023-05-04T13:37:23.326Z,26.94
2023-05-04T13:42:41.164Z,27.37
2023-05-04T13:47:59.124Z,26.81
2023-05-04T13:53:17.562Z,27.19
2023-05-04T13:58:36.163Z,26.81
2023-05-04T14:03:54.912Z,26.69
2023-05-04T14:14:31.383Z,26.5
2023-05-04T14:19:49.648Z,27.06
2023-05-04T14:25:08.536Z,27.13
2023-05-04T14:30:27.717Z,27.25
2023-05-04T14:41:04.759Z,26.5
2023-05-04T14:46:23.116Z,26.44
2023-05-04T14:51:41.535Z,26.06
2023-05-04T14:56:59.835Z,25.88
2023-05-04T15:02:18.098Z,25.44
2023-05-04T15:07:36.077Z,25.75
2023-05-04T15:12:54.761Z,25.5
2023-05-04T15:18:13.418Z,25.69
2023-05-04T15:23:31.879Z,25.5
2023-05-04T15:28:51.114Z,25.37
2023-05-04T15:34:09.118Z,25.62
2023-05-04T15:39:27.764Z,25.69
2023-05-04T15:44:46.042Z,25.94
2023-05-04T15:50:04.758Z,25.75
2023-05-04T15:55:25.083Z,25.69
2023-05-04T16:00:41.689Z,25.69
2023-05-04T16:06:00.229Z,26
2023-05-04T16:11:19.253Z,25.37
2023-05-04T16:16:38.143Z,26
2023-05-04T16:21:56.336Z,25.62
2023-05-04T16:27:14.973Z,25.06
2023-05-04T16:32:33.504Z,24.87
2023-05-04T16:37:51.622Z,24.63
2023-05-04T16:43:09.896Z,23.87
2023-05-04T16:48:28.515Z,24
2023-05-04T16:53:46.695Z,23.75
2023-05-04T16:59:04.812Z,23.56
2023-05-04T17:04:25.013Z,23.31
2023-05-04T17:09:43.417Z,23.12
2023-05-04T17:15:02.019Z,22.81
2023-05-04T17:20:21.607Z,22.62
2023-05-04T17:25:39.926Z,22.25
2023-05-04T17:30:57.900Z,21.75
2023-05-04T17:36:16.129Z,21.94
2023-05-04T17:41:34.690Z,21.87
2023-05-04T17:46:53.302Z,21.69
2023-05-04T17:52:13.108Z,21.25
2023-05-04T17:57:30.222Z,20.88
2023-05-04T18:59:25.304Z,17.37
2023-05-04T19:04:43.816Z,17.19
2023-05-04T19:10:02.435Z,17
2023-05-04T19:15:21.103Z,17.5
2023-05-04T19:20:39.903Z,17.37
2023-05-04T19:25:58.445Z,17.12
2023-05-04T19:31:16.959Z,17
2023-05-04T19:36:35.576Z,16.87
2023-05-04T19:41:53.854Z,16.75
2023-05-04T19:47:12.611Z,16.56
2023-05-04T19:52:30.878Z,16.31
2023-05-04T19:57:49.419Z,16.31
2023-05-04T20:03:07.806Z,16.19
2023-05-04T20:08:25.868Z,15.75
2023-05-04T20:13:44.455Z,15.56
2023-05-04T20:19:03.855Z,15.63
2023-05-04T20:24:21.208Z,15.5
2023-05-04T20:29:39.904Z,15.44
2023-05-04T20:34:58.576Z,15.5
2023-05-04T20:40:17.104Z,15.56
2023-05-04T20:45:35.697Z,15.44
2023-05-04T20:51:03.103Z,15.38
2023-05-04T20:56:12.661Z,15.25
2023-05-04T21:01:31.324Z,15.31
2023-05-04T21:06:49.911Z,15.44
2023-05-04T21:12:08.496Z,15.31
2023-05-04T21:17:27.370Z,15.31
2023-05-04T21:22:45.848Z,15.25
2023-05-04T21:28:04.507Z,15.25
2023-05-04T21:33:23.207Z,15.13
2023-05-04T21:38:41.826Z,15.06
2023-05-04T21:44:00.488Z,15.06
2023-05-04T21:49:19.408Z,15.25
2023-05-04T21:54:37.829Z,14.94
2023-05-04T21:59:56.058Z,14.87
2023-05-04T22:05:14.311Z,14.63
2023-05-04T22:10:32.510Z,14.56
2023-05-04T22:15:51.191Z,15
2023-05-04T22:21:09.809Z,14.56
2023-05-04T22:26:28.525Z,14.19
2023-05-04T22:31:46.696Z,13.94
2023-05-04T22:37:05.268Z,13.75
2023-05-04T22:42:23.825Z,13.56
2023-05-04T22:47:42.613Z,13.5
2023-05-04T22:53:01.348Z,13.38
2023-05-04T22:58:19.587Z,13.25
2023-05-04T23:03:38.484Z,13.06
2023-05-04T23:08:56.937Z,13.06
2023-05-04T23:14:15.161Z,12.81
2023-05-04T23:19:33.637Z,12.56
2023-05-04T23:24:51.940Z,12.5
2023-05-04T23:30:10.678Z,12.44
2023-05-04T23:35:29.489Z,12.44
2023-05-04T23:40:48.166Z,12.56
2023-05-04T23:46:07.143Z,12.63
2023-05-04T23:51:25.292Z,12.63
2023-05-04T23:56:43.973Z,12.56
